IBE04HB LEMD-LECO
Flight info
| Callsign | IBE04HB |
|---|---|
| Flight time | 0h 47m |
| Altitude | 29000 |
| Route | ZMR N733 DESAT/N0468F300 DCT LOMDA |
| Aircraft | A320/M-SDE3FGHIRWY/LB1 |
Departure
| Time | 2026-04-30 20:42 |
|---|---|
| Airport | Adolfo Suárez Madrid–Barajas Airport (LEMD) |
Arrival
| Time | 2026-04-30 21:29 |
|---|---|
| Airport | A Coruña Airport (LECO) |
| Time | Latitude | Longitude | Altitude | Speed | Heading |
|---|---|---|---|---|---|
| 2026-04-30 20:16 | 40.49551 | -3.58971 | 2022 ft | 0 kts | 271° |
| 2026-04-30 20:30 | 40.49551 | -3.58962 | 2022 ft | 2 kts | 271° |
| 2026-04-30 20:31 | 40.49558 | -3.58901 | 2022 ft | 2 kts | 189° |
| 2026-04-30 20:32 | 40.49560 | -3.58900 | 2022 ft | 0 kts | 184° |
| 2026-04-30 20:36 | 40.49530 | -3.58902 | 2022 ft | 5 kts | 179° |
| 2026-04-30 20:37 | 40.49476 | -3.58898 | 2022 ft | 15 kts | 176° |
| 2026-04-30 20:37 | 40.49382 | -3.58890 | 2022 ft | 12 kts | 176° |
| 2026-04-30 20:37 | 40.49304 | -3.58885 | 2022 ft | 10 kts | 177° |
| 2026-04-30 20:37 | 40.49246 | -3.58863 | 2025 ft | 8 kts | 123° |
| 2026-04-30 20:38 | 40.49238 | -3.58795 | 2022 ft | 10 kts | 97° |
| 2026-04-30 20:38 | 40.49225 | -3.58661 | 2027 ft | 19 kts | 95° |
| 2026-04-30 20:38 | 40.49231 | -3.58456 | 2017 ft | 25 kts | 84° |
| 2026-04-30 20:39 | 40.49242 | -3.57972 | 2000 ft | 27 kts | 90° |
| 2026-04-30 20:39 | 40.49243 | -3.57746 | 1991 ft | 16 kts | 90° |
| 2026-04-30 20:39 | 40.49247 | -3.57617 | 1987 ft | 14 kts | 74° |
| 2026-04-30 20:40 | 40.49346 | -3.57456 | 1984 ft | 6 kts | 21° |
| 2026-04-30 20:40 | 40.49364 | -3.57453 | 1983 ft | 0 kts | 4° |
| 2026-04-30 20:41 | 40.49407 | -3.57450 | 1983 ft | 29 kts | 3° |
| 2026-04-30 20:41 | 40.49871 | -3.57453 | 1987 ft | 101 kts | 359° |
| 2026-04-30 20:41 | 40.50767 | -3.57465 | 1996 ft | 154 kts | 359° |
| 2026-04-30 20:41 | 40.51940 | -3.57480 | 2355 ft | 172 kts | 359° |
| 2026-04-30 20:42 | 40.53151 | -3.57471 | 3045 ft | 176 kts | 1° |
| 2026-04-30 20:42 | 40.54388 | -3.57429 | 3679 ft | 185 kts | 360° |
| 2026-04-30 20:42 | 40.57252 | -3.57462 | 4282 ft | 223 kts | 359° |
| 2026-04-30 20:43 | 40.58825 | -3.57486 | 4824 ft | 228 kts | 360° |
| 2026-04-30 20:43 | 40.60411 | -3.57205 | 5400 ft | 233 kts | 18° |
| 2026-04-30 20:43 | 40.61908 | -3.56361 | 6146 ft | 235 kts | 25° |
| 2026-04-30 20:44 | 40.65070 | -3.55566 | 7568 ft | 241 kts | 345° |
| 2026-04-30 20:44 | 40.66720 | -3.55996 | 8304 ft | 244 kts | 354° |
| 2026-04-30 20:44 | 40.70147 | -3.56024 | 9812 ft | 249 kts | 1° |
| 2026-04-30 20:45 | 40.73535 | -3.56774 | 11141 ft | 252 kts | 327° |
| 2026-04-30 20:45 | 40.74891 | -3.58349 | 11422 ft | 270 kts | 302° |
| 2026-04-30 20:45 | 40.75864 | -3.60579 | 11648 ft | 292 kts | 296° |
| 2026-04-30 20:46 | 40.78779 | -3.67658 | 12148 ft | 355 kts | 297° |
| 2026-04-30 20:46 | 40.79607 | -3.69652 | 12325 ft | 366 kts | 296° |
| 2026-04-30 20:47 | 40.82111 | -3.75654 | 13535 ft | 378 kts | 297° |
| 2026-04-30 20:47 | 40.83395 | -3.78697 | 14162 ft | 381 kts | 297° |
| 2026-04-30 20:48 | 40.85998 | -3.84866 | 15325 ft | 388 kts | 297° |
| 2026-04-30 20:48 | 40.87309 | -3.88002 | 15899 ft | 391 kts | 297° |
| 2026-04-30 20:48 | 40.88629 | -3.91165 | 16461 ft | 394 kts | 296° |
| 2026-04-30 20:48 | 40.89958 | -3.94353 | 17004 ft | 398 kts | 296° |
| 2026-04-30 20:49 | 40.91295 | -3.97568 | 17546 ft | 401 kts | 296° |
| 2026-04-30 20:49 | 40.92639 | -4.00813 | 18113 ft | 404 kts | 296° |
| 2026-04-30 20:49 | 40.93990 | -4.04085 | 18644 ft | 407 kts | 296° |
| 2026-04-30 20:50 | 40.96728 | -4.10707 | 19474 ft | 416 kts | 296° |
| 2026-04-30 20:50 | 40.98116 | -4.14068 | 19570 ft | 427 kts | 296° |
| 2026-04-30 20:50 | 40.99551 | -4.17548 | 19823 ft | 434 kts | 296° |
| 2026-04-30 20:50 | 41.01008 | -4.21073 | 20171 ft | 438 kts | 296° |
| 2026-04-30 20:51 | 41.02455 | -4.24639 | 20545 ft | 441 kts | 295° |
| 2026-04-30 20:51 | 41.05212 | -4.31950 | 21272 ft | 446 kts | 294° |
| 2026-04-30 20:51 | 41.06559 | -4.35670 | 21617 ft | 449 kts | 294° |
| 2026-04-30 20:52 | 41.07909 | -4.39416 | 21973 ft | 452 kts | 294° |
| 2026-04-30 20:52 | 41.09274 | -4.43178 | 22322 ft | 454 kts | 294° |
| 2026-04-30 20:52 | 41.12057 | -4.50751 | 23021 ft | 459 kts | 294° |
| 2026-04-30 20:53 | 41.13466 | -4.54565 | 23349 ft | 462 kts | 294° |
| 2026-04-30 20:53 | 41.14884 | -4.58400 | 23671 ft | 464 kts | 294° |
| 2026-04-30 20:53 | 41.16307 | -4.62261 | 23919 ft | 467 kts | 294° |
| 2026-04-30 20:54 | 41.19163 | -4.70033 | 24459 ft | 470 kts | 294° |
| 2026-04-30 20:54 | 41.20598 | -4.73945 | 24739 ft | 472 kts | 294° |
| 2026-04-30 20:54 | 41.22035 | -4.77872 | 25006 ft | 473 kts | 294° |
| 2026-04-30 20:55 | 41.24907 | -4.85754 | 25664 ft | 473 kts | 294° |
| 2026-04-30 20:55 | 41.26336 | -4.89680 | 26084 ft | 471 kts | 294° |
| 2026-04-30 20:55 | 41.27763 | -4.93594 | 26473 ft | 470 kts | 293° |
| 2026-04-30 20:56 | 41.30598 | -5.01404 | 27250 ft | 468 kts | 293° |
| 2026-04-30 20:56 | 41.32009 | -5.05302 | 27635 ft | 467 kts | 293° |
| 2026-04-30 20:56 | 41.34823 | -5.13077 | 28433 ft | 465 kts | 293° |
| 2026-04-30 20:57 | 41.36223 | -5.16955 | 28830 ft | 464 kts | 292° |
| 2026-04-30 20:57 | 41.37615 | -5.20829 | 29096 ft | 464 kts | 292° |
| 2026-04-30 20:57 | 41.39012 | -5.24726 | 29142 ft | 468 kts | 292° |
| 2026-04-30 20:58 | 41.43362 | -5.36395 | 29146 ft | 475 kts | 298° |
| 2026-04-30 20:58 | 41.46859 | -5.43889 | 29144 ft | 477 kts | 299° |
| 2026-04-30 20:59 | 41.52189 | -5.55169 | 29141 ft | 477 kts | 299° |
| 2026-04-30 21:00 | 41.59208 | -5.70130 | 29135 ft | 477 kts | 299° |
| 2026-04-30 21:01 | 41.64454 | -5.81411 | 29138 ft | 477 kts | 299° |
| 2026-04-30 21:02 | 41.69699 | -5.92734 | 29122 ft | 477 kts | 299° |
| 2026-04-30 21:02 | 41.73197 | -6.00297 | 29121 ft | 478 kts | 299° |
| 2026-04-30 21:03 | 41.76697 | -6.07869 | 29118 ft | 478 kts | 299° |
| 2026-04-30 21:03 | 41.80187 | -6.15456 | 29128 ft | 478 kts | 298° |
| 2026-04-30 21:04 | 41.84197 | -6.22588 | 29129 ft | 483 kts | 313° |
| 2026-04-30 21:04 | 41.92117 | -6.31044 | 29115 ft | 486 kts | 320° |
| 2026-04-30 21:05 | 41.97483 | -6.36598 | 29134 ft | 489 kts | 320° |
| 2026-04-30 21:05 | 42.02861 | -6.42212 | 29149 ft | 489 kts | 320° |
| 2026-04-30 21:06 | 42.08221 | -6.47834 | 29168 ft | 488 kts | 320° |
| 2026-04-30 21:06 | 42.13583 | -6.53446 | 29141 ft | 488 kts | 320° |
| 2026-04-30 21:07 | 42.18911 | -6.59022 | 29134 ft | 488 kts | 320° |
| 2026-04-30 21:07 | 42.24273 | -6.64640 | 29139 ft | 488 kts | 320° |
| 2026-04-30 21:08 | 42.29620 | -6.70266 | 29137 ft | 488 kts | 319° |
| 2026-04-30 21:08 | 42.34949 | -6.75892 | 29124 ft | 486 kts | 320° |
| 2026-04-30 21:09 | 42.40282 | -6.81522 | 29128 ft | 487 kts | 320° |
| 2026-04-30 21:09 | 42.45641 | -6.87204 | 29140 ft | 490 kts | 319° |
| 2026-04-30 21:10 | 42.50991 | -6.92896 | 29148 ft | 490 kts | 319° |
| 2026-04-30 21:10 | 42.56356 | -6.98595 | 29149 ft | 489 kts | 319° |
| 2026-04-30 21:11 | 42.61705 | -7.04299 | 29167 ft | 489 kts | 319° |
| 2026-04-30 21:11 | 42.67046 | -7.10007 | 28200 ft | 488 kts | 319° |
| 2026-04-30 21:12 | 42.69694 | -7.12837 | 26877 ft | 481 kts | 320° |
| 2026-04-30 21:12 | 42.72304 | -7.15627 | 25611 ft | 473 kts | 320° |
| 2026-04-30 21:12 | 42.74864 | -7.18371 | 24424 ft | 464 kts | 320° |
| 2026-04-30 21:12 | 42.77383 | -7.21076 | 23219 ft | 458 kts | 320° |
| 2026-04-30 21:13 | 42.79863 | -7.23744 | 22254 ft | 452 kts | 319° |
| 2026-04-30 21:13 | 42.81526 | -7.25535 | 21732 ft | 451 kts | 320° |
| 2026-04-30 21:13 | 42.83934 | -7.28184 | 20914 ft | 450 kts | 316° |
| 2026-04-30 21:13 | 42.86141 | -7.31255 | 20102 ft | 446 kts | 307° |
| 2026-04-30 21:14 | 42.87991 | -7.34556 | 19331 ft | 443 kts | 304° |
| 2026-04-30 21:14 | 42.89840 | -7.37953 | 18906 ft | 433 kts | 304° |
| 2026-04-30 21:14 | 42.91583 | -7.41142 | 18782 ft | 416 kts | 304° |
| 2026-04-30 21:14 | 42.93281 | -7.44249 | 18663 ft | 401 kts | 304° |
| 2026-04-30 21:15 | 42.94916 | -7.47245 | 18552 ft | 387 kts | 304° |
| 2026-04-30 21:15 | 42.96495 | -7.50144 | 18373 ft | 375 kts | 304° |
| 2026-04-30 21:15 | 42.98058 | -7.53023 | 17980 ft | 370 kts | 303° |
| 2026-04-30 21:15 | 42.99579 | -7.55838 | 17536 ft | 367 kts | 303° |
| 2026-04-30 21:16 | 43.01088 | -7.58635 | 17106 ft | 365 kts | 303° |
| 2026-04-30 21:16 | 43.02580 | -7.61404 | 16452 ft | 368 kts | 303° |
| 2026-04-30 21:16 | 43.04103 | -7.64229 | 15844 ft | 370 kts | 303° |
| 2026-04-30 21:16 | 43.05633 | -7.67064 | 15252 ft | 371 kts | 304° |
| 2026-04-30 21:17 | 43.07169 | -7.69908 | 14677 ft | 372 kts | 304° |
| 2026-04-30 21:17 | 43.08710 | -7.72762 | 14107 ft | 373 kts | 304° |
| 2026-04-30 21:17 | 43.10250 | -7.75621 | 13490 ft | 373 kts | 304° |
| 2026-04-30 21:17 | 43.11790 | -7.78480 | 12842 ft | 373 kts | 304° |
| 2026-04-30 21:18 | 43.13327 | -7.81336 | 12255 ft | 372 kts | 304° |
| 2026-04-30 21:18 | 43.14857 | -7.84183 | 11647 ft | 371 kts | 304° |
| 2026-04-30 21:18 | 43.16382 | -7.87022 | 11050 ft | 369 kts | 304° |
| 2026-04-30 21:18 | 43.17900 | -7.89847 | 10484 ft | 367 kts | 304° |
| 2026-04-30 21:19 | 43.19405 | -7.92656 | 9942 ft | 364 kts | 304° |
| 2026-04-30 21:19 | 43.20895 | -7.95442 | 9361 ft | 361 kts | 304° |
| 2026-04-30 21:19 | 43.22372 | -7.98206 | 8789 ft | 358 kts | 304° |
| 2026-04-30 21:19 | 43.23833 | -8.00937 | 8228 ft | 354 kts | 304° |
| 2026-04-30 21:20 | 43.25306 | -8.03631 | 7676 ft | 352 kts | 307° |
| 2026-04-30 21:20 | 43.27162 | -8.05779 | 7257 ft | 348 kts | 330° |
| 2026-04-30 21:20 | 43.29421 | -8.06831 | 6964 ft | 340 kts | 347° |
| 2026-04-30 21:20 | 43.31713 | -8.07409 | 6674 ft | 330 kts | 349° |
| 2026-04-30 21:21 | 43.33944 | -8.07934 | 6367 ft | 318 kts | 349° |
| 2026-04-30 21:21 | 43.36051 | -8.08413 | 6130 ft | 295 kts | 349° |
| 2026-04-30 21:21 | 43.39827 | -8.09208 | 5718 ft | 256 kts | 349° |
| 2026-04-30 21:22 | 43.41530 | -8.09548 | 5515 ft | 238 kts | 348° |
| 2026-04-30 21:22 | 43.45498 | -8.12354 | 4926 ft | 208 kts | 310° |
| 2026-04-30 21:23 | 43.46459 | -8.13824 | 4665 ft | 205 kts | 300° |
| 2026-04-30 21:23 | 43.47120 | -8.15541 | 4397 ft | 202 kts | 291° |
| 2026-04-30 21:23 | 43.47556 | -8.19249 | 3896 ft | 199 kts | 261° |
| 2026-04-30 21:24 | 43.47357 | -8.21134 | 3652 ft | 199 kts | 259° |
| 2026-04-30 21:24 | 43.46876 | -8.22896 | 3405 ft | 198 kts | 233° |
| 2026-04-30 21:24 | 43.45868 | -8.24172 | 3146 ft | 198 kts | 217° |
| 2026-04-30 21:24 | 43.44779 | -8.25306 | 3020 ft | 195 kts | 217° |
| 2026-04-30 21:25 | 43.42588 | -8.27491 | 2928 ft | 195 kts | 212° |
| 2026-04-30 21:25 | 43.41436 | -8.28474 | 2718 ft | 195 kts | 211° |
| 2026-04-30 21:25 | 43.40273 | -8.29439 | 2478 ft | 195 kts | 210° |
| 2026-04-30 21:26 | 43.38082 | -8.31247 | 1993 ft | 166 kts | 210° |
| 2026-04-30 21:26 | 43.37136 | -8.32027 | 1747 ft | 152 kts | 210° |
| 2026-04-30 21:27 | 43.35381 | -8.33471 | 1348 ft | 144 kts | 210° |
| 2026-04-30 21:27 | 43.34526 | -8.34173 | 1154 ft | 143 kts | 211° |
| 2026-04-30 21:27 | 43.33674 | -8.34873 | 957 ft | 143 kts | 210° |
| 2026-04-30 21:28 | 43.31986 | -8.36266 | 558 ft | 140 kts | 210° |
| 2026-04-30 21:28 | 43.31152 | -8.36948 | 372 ft | 139 kts | 212° |
| 2026-04-30 21:28 | 43.29777 | -8.38091 | 273 ft | 72 kts | 211° |
| 2026-04-30 21:29 | 43.29486 | -8.38333 | 270 ft | 31 kts | 213° |
| 2026-04-30 21:29 | 43.29230 | -8.38525 | 271 ft | 16 kts | 34° |
| 2026-04-30 21:30 | 43.29595 | -8.38226 | 270 ft | 35 kts | 29° |
| 2026-04-30 21:31 | 43.30037 | -8.38073 | 274 ft | 16 kts | 359° |
| 2026-04-30 21:31 | 43.30155 | -8.38072 | 276 ft | 3 kts | 324° |
| 2026-04-30 21:32 | 43.30163 | -8.38080 | 274 ft | 0 kts | 325° |